createdAt,value
2023-03-29T00:00:12.257Z,72.00
2023-03-29T00:02:40.382Z,71.85
2023-03-29T00:05:12.366Z,72.32
2023-03-29T00:07:41.092Z,72.06
2023-03-29T00:10:11.756Z,72.28
2023-03-29T00:12:40.976Z,72.00
2023-03-29T00:15:09.894Z,72.22
2023-03-29T00:17:37.893Z,72.35
2023-03-29T00:20:10.266Z,72.50
2023-03-29T00:22:42.057Z,72.14
2023-03-29T00:25:10.509Z,71.98
2023-03-29T00:27:38.836Z,71.83
2023-03-29T00:30:10.102Z,71.32
2023-03-29T00:32:38.672Z,71.31
2023-03-29T00:35:07.529Z,71.47
2023-03-29T00:37:35.450Z,71.66
2023-03-29T00:40:08.272Z,71.74
2023-03-29T00:42:36.208Z,71.05
2023-03-29T00:45:07.495Z,71.11
2023-03-29T00:47:41.471Z,71.26
2023-03-29T00:50:15.833Z,71.59
2023-03-29T00:52:48.962Z,71.39
2023-03-29T00:55:21.638Z,71.74
2023-03-29T00:57:50.245Z,71.38
2023-03-29T01:00:22.206Z,71.69
2023-03-29T01:02:55.131Z,71.89
2023-03-29T01:05:27.020Z,72.11
2023-03-29T01:07:58.977Z,71.97
2023-03-29T01:10:33.905Z,72.27
2023-03-29T01:13:07.012Z,72.03
2023-03-29T01:15:35.226Z,72.06
2023-03-29T01:18:03.529Z,72.02
2023-03-29T01:20:44.776Z,71.76
2023-03-29T01:23:26.879Z,71.69
2023-03-29T01:26:01.126Z,72.10
2023-03-29T01:28:35.432Z,72.30
2023-03-29T01:31:08.456Z,72.43
2023-03-29T01:33:41.592Z,73.30
2023-03-29T01:36:17.500Z,73.22
2023-03-29T01:38:51.768Z,73.67
2023-03-29T01:41:20.192Z,73.72
2023-03-29T01:43:53.028Z,73.98
2023-03-29T01:46:31.140Z,74.24
2023-03-29T01:49:03.103Z,73.69
2023-03-29T01:51:37.079Z,73.09
2023-03-29T01:54:11.420Z,72.43
2023-03-29T01:56:42.743Z,72.06
2023-03-29T01:59:15.262Z,71.56
2023-03-29T02:01:51.917Z,71.61
2023-03-29T02:04:26.576Z,71.50
2023-03-29T02:06:56.614Z,71.41
2023-03-29T02:09:24.843Z,71.37
2023-03-29T02:11:53.731Z,71.54
2023-03-29T02:14:24.160Z,71.79
2023-03-29T02:16:52.101Z,71.35
2023-03-29T02:19:21.798Z,71.28
2023-03-29T02:21:57.351Z,71.18
2023-03-29T02:24:26.320Z,71.35
2023-03-29T02:26:54.336Z,71.61
2023-03-29T02:29:23.580Z,71.49
2023-03-29T02:31:56.631Z,71.79
2023-03-29T02:34:30.817Z,72.53
2023-03-29T02:37:01.877Z,72.52
2023-03-29T02:39:33.749Z,71.65
2023-03-29T02:42:03.250Z,71.17
2023-03-29T02:44:33.056Z,71.04
2023-03-29T02:47:04.381Z,71.24
2023-03-29T02:49:32.377Z,71.06
2023-03-29T02:52:07.750Z,71.33
2023-03-29T02:54:37.980Z,71.56
2023-03-29T02:57:07.402Z,71.32
2023-03-29T02:59:38.500Z,71.28
2023-03-29T03:02:06.879Z,71.30
2023-03-29T03:04:35.491Z,71.22
2023-03-29T03:07:04.705Z,71.15
2023-03-29T03:09:32.846Z,71.56
2023-03-29T03:12:01.067Z,71.50
2023-03-29T03:14:29.490Z,71.67
2023-03-29T03:17:03.917Z,71.65
2023-03-29T03:19:33.111Z,71.64
2023-03-29T03:22:01.022Z,71.52
2023-03-29T03:24:29.059Z,71.75
2023-03-29T03:26:58.058Z,71.92
2023-03-29T03:29:26.585Z,72.18
2023-03-29T03:32:22.084Z,72.42
2023-03-29T03:35:08.941Z,72.46
2023-03-29T03:37:38.297Z,72.45
2023-03-29T03:40:12.079Z,75.11
2023-03-29T03:42:41.010Z,71.38
2023-03-29T03:45:10.812Z,71.43
2023-03-29T03:47:45.975Z,71.92
2023-03-29T03:50:32.667Z,72.00
2023-03-29T03:53:00.992Z,72.18
2023-03-29T03:55:39.676Z,72.09
2023-03-29T03:58:12.321Z,72.28
2023-03-29T04:00:40.450Z,72.57
2023-03-29T04:03:24.735Z,72.17
2023-03-29T04:05:52.408Z,72.26
2023-03-29T04:08:22.502Z,72.45
2023-03-29T04:11:10.633Z,72.71
2023-03-29T04:13:42.134Z,72.77
2023-03-29T04:16:27.602Z,72.85
2023-03-29T04:18:59.270Z,72.84
2023-03-29T04:21:29.844Z,72.96
2023-03-29T04:23:57.714Z,72.90
2023-03-29T04:26:25.911Z,72.89
2023-03-29T04:29:02.169Z,72.91
2023-03-29T04:31:40.926Z,73.29
2023-03-29T04:34:33.369Z,73.30
2023-03-29T04:37:02.620Z,73.55
2023-03-29T04:39:33.972Z,73.57
2023-03-29T04:42:05.635Z,73.47
2023-03-29T04:44:34.951Z,73.71
2023-03-29T04:47:06.842Z,74.05
2023-03-29T04:49:58.839Z,74.01
2023-03-29T04:52:39.963Z,74.18
2023-03-29T04:55:09.230Z,74.19
2023-03-29T04:57:44.593Z,74.28
2023-03-29T05:00:26.970Z,74.28
2023-03-29T05:03:09.984Z,74.59
2023-03-29T05:05:42.922Z,74.76
2023-03-29T05:08:12.264Z,74.72
2023-03-29T05:11:00.521Z,75.13
2023-03-29T05:13:29.818Z,75.15
2023-03-29T05:15:58.148Z,75.08
2023-03-29T05:18:26.245Z,75.26
2023-03-29T05:20:55.568Z,75.30
2023-03-29T05:23:23.995Z,75.55
2023-03-29T05:26:08.016Z,75.76
2023-03-29T05:28:35.990Z,75.71
2023-03-29T05:31:06.710Z,75.81
2023-03-29T05:33:37.121Z,75.76
2023-03-29T05:36:10.871Z,75.68
2023-03-29T05:38:46.621Z,75.67
2023-03-29T05:41:15.934Z,75.68
2023-03-29T05:44:19.486Z,75.65
2023-03-29T05:46:52.148Z,75.84
2023-03-29T05:49:21.487Z,75.78
2023-03-29T05:52:06.779Z,76.07
2023-03-29T05:54:36.205Z,76.33
2023-03-29T05:57:07.033Z,76.33
2023-03-29T05:59:35.001Z,76.53
2023-03-29T06:02:05.006Z,76.58
2023-03-29T06:04:36.590Z,76.61
2023-03-29T06:07:25.886Z,76.65
2023-03-29T06:10:18.005Z,76.66
2023-03-29T06:12:50.203Z,76.62
2023-03-29T06:15:22.093Z,76.41
2023-03-29T06:18:01.537Z,76.53
2023-03-29T06:20:29.824Z,76.40
2023-03-29T06:23:04.862Z,76.27
2023-03-29T06:25:32.857Z,76.22
2023-03-29T06:28:01.015Z,76.31
2023-03-29T06:30:29.102Z,76.08
2023-03-29T06:33:00.949Z,76.12
2023-03-29T06:35:49.401Z,76.13
2023-03-29T06:38:22.828Z,75.96
2023-03-29T06:40:53.804Z,75.89
2023-03-29T06:43:24.070Z,75.54
2023-03-29T06:46:00.223Z,75.65
2023-03-29T06:48:38.432Z,75.39
2023-03-29T06:51:07.583Z,75.30
2023-03-29T06:53:36.947Z,75.24
2023-03-29T06:56:05.348Z,74.90
2023-03-29T06:58:45.031Z,74.58
2023-03-29T07:01:29.526Z,74.81
2023-03-29T07:04:08.205Z,74.18
2023-03-29T07:07:01.632Z,75.13
2023-03-29T07:09:35.971Z,74.77
2023-03-29T07:12:23.123Z,74.68
2023-03-29T07:14:51.857Z,74.17
2023-03-29T07:17:20.616Z,74.12
2023-03-29T07:19:49.357Z,74.06
2023-03-29T07:22:36.238Z,74.86
2023-03-29T07:25:09.152Z,75.13
2023-03-29T07:27:37.809Z,75.18
2023-03-29T07:30:10.642Z,75.16
2023-03-29T07:32:39.768Z,75.42
2023-03-29T07:35:30.935Z,75.21
2023-03-29T07:37:59.656Z,75.22
2023-03-29T07:40:30.310Z,74.91
2023-03-29T07:42:58.790Z,74.91
2023-03-29T07:45:29.794Z,75.03
2023-03-29T07:48:05.425Z,75.01
2023-03-29T07:50:47.766Z,74.87
2023-03-29T07:53:17.279Z,74.98
2023-03-29T07:55:49.096Z,74.87
2023-03-29T07:58:35.843Z,74.94
2023-03-29T08:01:04.148Z,74.87
2023-03-29T08:04:01.275Z,74.82
2023-03-29T08:06:48.943Z,74.66
2023-03-29T08:09:17.655Z,74.40
2023-03-29T08:11:47.274Z,74.38
2023-03-29T08:14:23.748Z,74.70
2023-03-29T08:17:05.741Z,74.81
2023-03-29T08:19:40.088Z,75.05
2023-03-29T08:22:09.512Z,75.52
2023-03-29T08:25:05.529Z,75.26
2023-03-29T08:27:39.659Z,75.35
2023-03-29T08:30:10.613Z,75.70
2023-03-29T08:32:40.161Z,75.80
2023-03-29T08:35:10.681Z,75.78
2023-03-29T08:37:51.278Z,75.21
2023-03-29T08:40:22.742Z,74.85
2023-03-29T08:43:33.699Z,74.31
2023-03-29T08:46:36.800Z,74.02
2023-03-29T08:49:17.783Z,73.49
2023-03-29T08:51:49.158Z,73.52
2023-03-29T08:54:21.848Z,73.57
2023-03-29T08:57:17.375Z,73.89
2023-03-29T08:59:52.883Z,73.54
2023-03-29T09:02:24.996Z,73.70
2023-03-29T09:05:01.397Z,73.88
2023-03-29T09:07:42.052Z,73.81
2023-03-29T09:10:15.439Z,73.90
2023-03-29T09:13:01.365Z,73.66
2023-03-29T09:15:38.202Z,73.54
2023-03-29T09:18:27.428Z,73.83
2023-03-29T09:21:01.408Z,73.86
2023-03-29T09:23:52.586Z,74.20
2023-03-29T09:26:41.378Z,74.46
2023-03-29T09:29:40.949Z,73.85
2023-03-29T09:32:20.072Z,73.82
2023-03-29T09:35:00.932Z,73.87
2023-03-29T09:37:34.022Z,73.55
2023-03-29T09:40:11.133Z,73.37
2023-03-29T09:42:59.242Z,72.86
2023-03-29T09:45:27.951Z,72.53
2023-03-29T09:48:00.200Z,72.37
2023-03-29T09:50:37.303Z,72.14
2023-03-29T09:53:09.016Z,71.17
2023-03-29T09:55:40.861Z,71.11
2023-03-29T09:58:31.045Z,71.41
2023-03-29T10:01:01.089Z,71.62
2023-03-29T10:03:34.850Z,71.42
2023-03-29T10:06:12.992Z,71.31
2023-03-29T10:08:48.189Z,71.22
2023-03-29T10:11:23.158Z,71.37
2023-03-29T10:13:54.985Z,72.22
2023-03-29T10:16:24.434Z,71.75
2023-03-29T10:18:54.625Z,71.48
2023-03-29T10:21:23.768Z,71.35
2023-03-29T10:23:59.198Z,71.49
2023-03-29T10:26:30.893Z,71.74
2023-03-29T10:29:01.553Z,71.39
2023-03-29T10:31:31.360Z,71.44
2023-03-29T10:34:05.073Z,71.55
2023-03-29T10:36:33.493Z,71.53
2023-03-29T10:39:05.750Z,71.30
2023-03-29T10:41:35.379Z,71.40
2023-03-29T10:44:03.694Z,71.38
2023-03-29T10:46:33.628Z,70.81
2023-03-29T10:49:10.008Z,70.37
2023-03-29T10:51:37.880Z,70.41
2023-03-29T10:54:08.007Z,70.58
2023-03-29T10:56:41.844Z,69.85
2023-03-29T10:59:30.782Z,69.01
2023-03-29T11:02:32.175Z,68.58
2023-03-29T11:05:12.632Z,68.44
2023-03-29T11:07:50.554Z,67.92
2023-03-29T11:10:34.962Z,67.75
2023-03-29T11:13:08.993Z,67.43
2023-03-29T11:15:54.499Z,66.80
2023-03-29T11:18:45.951Z,66.29
2023-03-29T11:21:24.179Z,66.53
2023-03-29T11:24:03.293Z,65.21
2023-03-29T11:26:35.398Z,64.81
2023-03-29T11:29:07.152Z,65.24
2023-03-29T11:31:42.143Z,64.84
2023-03-29T11:34:22.076Z,63.42
2023-03-29T11:36:57.234Z,64.77
2023-03-29T11:39:35.197Z,65.70
2023-03-29T11:42:09.284Z,65.56
2023-03-29T11:44:38.567Z,66.14
2023-03-29T11:47:10.272Z,66.78
2023-03-29T11:49:43.094Z,66.28
2023-03-29T11:52:17.716Z,66.52
2023-03-29T11:54:49.719Z,66.45
2023-03-29T11:57:24.526Z,64.50
2023-03-29T11:59:57.931Z,61.74
2023-03-29T12:02:31.747Z,62.92
2023-03-29T12:05:03.434Z,63.20
2023-03-29T12:07:37.832Z,61.81
2023-03-29T12:10:09.848Z,60.30
2023-03-29T12:12:45.860Z,59.93
2023-03-29T12:15:20.256Z,58.37
2023-03-29T12:17:55.867Z,59.77
2023-03-29T12:20:28.324Z,61.57
2023-03-29T12:23:00.763Z,61.00
2023-03-29T12:25:34.675Z,62.52
2023-03-29T12:28:19.270Z,64.22
2023-03-29T12:30:55.944Z,63.50
2023-03-29T12:33:58.806Z,63.41
2023-03-29T12:37:26.991Z,61.73
2023-03-29T12:40:18.590Z,62.88
2023-03-29T12:43:08.530Z,63.11
2023-03-29T12:46:06.692Z,64.07
2023-03-29T12:48:35.562Z,63.63
2023-03-29T12:51:06.213Z,63.89
2023-03-29T12:53:36.827Z,64.84
2023-03-29T12:56:16.062Z,64.96
2023-03-29T12:58:53.123Z,64.89
2023-03-29T13:01:31.578Z,64.61
2023-03-29T13:04:20.364Z,64.57
2023-03-29T13:07:07.147Z,64.74
2023-03-29T13:09:37.494Z,65.02
2023-03-29T13:12:09.300Z,64.71
2023-03-29T13:14:40.075Z,64.29
2023-03-29T13:17:18.226Z,63.28
2023-03-29T13:19:51.986Z,62.27
2023-03-29T13:22:32.192Z,62.67
2023-03-29T13:25:11.024Z,63.10
2023-03-29T13:27:50.698Z,63.28
2023-03-29T13:30:28.505Z,62.95
2023-03-29T13:33:07.328Z,63.53
2023-03-29T13:35:46.213Z,63.92
2023-03-29T13:38:19.601Z,63.63
2023-03-29T13:41:03.484Z,63.68
2023-03-29T13:43:35.429Z,63.71
2023-03-29T13:46:19.818Z,63.74
2023-03-29T13:49:04.780Z,63.92
2023-03-29T13:51:40.521Z,64.35
2023-03-29T13:54:19.415Z,63.78
2023-03-29T13:56:58.939Z,64.37
2023-03-29T13:59:33.040Z,65.26
2023-03-29T14:02:04.187Z,66.56
2023-03-29T14:04:38.711Z,66.86
2023-03-29T14:07:10.588Z,67.96
2023-03-29T14:09:43.915Z,68.00
2023-03-29T14:12:14.569Z,67.70
2023-03-29T14:14:58.141Z,67.79
2023-03-29T14:17:28.061Z,67.75
2023-03-29T14:19:58.873Z,68.17
2023-03-29T14:22:32.269Z,69.29
2023-03-29T14:25:04.671Z,70.02
2023-03-29T14:27:33.526Z,70.97
2023-03-29T14:30:02.888Z,71.22
2023-03-29T14:32:32.713Z,71.66
2023-03-29T14:35:01.861Z,72.03
2023-03-29T14:37:30.866Z,72.61
2023-03-29T14:39:59.914Z,72.72
2023-03-29T14:42:29.415Z,72.74
2023-03-29T14:45:00.007Z,72.79
2023-03-29T14:47:31.309Z,72.54
2023-03-29T14:50:00.867Z,72.86
2023-03-29T14:52:30.357Z,73.16
2023-03-29T14:55:01.881Z,73.09
2023-03-29T14:57:35.109Z,72.47
2023-03-29T15:00:13.431Z,72.83
2023-03-29T15:02:50.953Z,72.72
2023-03-29T15:05:31.404Z,72.33
2023-03-29T15:07:59.442Z,72.00
2023-03-29T15:10:27.370Z,71.84
2023-03-29T15:12:55.933Z,71.56
2023-03-29T15:15:25.709Z,71.08
2023-03-29T15:17:57.149Z,71.49
2023-03-29T15:20:27.982Z,71.62
2023-03-29T15:23:02.286Z,71.93
2023-03-29T15:25:34.739Z,72.72
2023-03-29T15:28:02.608Z,73.19
2023-03-29T15:30:34.853Z,73.34
2023-03-29T15:33:16.264Z,73.34
2023-03-29T15:35:47.524Z,73.55
2023-03-29T15:38:15.836Z,73.66
2023-03-29T15:40:43.971Z,73.39
2023-03-29T15:43:12.104Z,73.78
2023-03-29T15:45:39.918Z,74.31
2023-03-29T15:48:16.188Z,74.42
2023-03-29T15:50:45.187Z,74.39
2023-03-29T15:53:15.385Z,74.47
2023-03-29T15:55:46.924Z,74.39
2023-03-29T15:58:16.943Z,74.41
2023-03-29T16:00:49.565Z,74.39
2023-03-29T16:03:19.370Z,74.65
2023-03-29T16:05:47.768Z,74.81
2023-03-29T16:08:15.720Z,74.63
2023-03-29T16:10:44.790Z,75.05
2023-03-29T16:13:14.727Z,75.04
2023-03-29T16:15:44.033Z,74.97
2023-03-29T16:18:11.940Z,75.35
2023-03-29T16:20:41.649Z,75.64
2023-03-29T16:23:09.832Z,75.88
2023-03-29T16:25:39.892Z,76.30
2023-03-29T16:28:10.036Z,76.48
2023-03-29T16:30:38.872Z,76.59
2023-03-29T16:33:08.565Z,76.49
2023-03-29T16:35:38.397Z,76.57
2023-03-29T16:38:08.616Z,76.27
2023-03-29T16:40:36.923Z,76.51
2023-03-29T16:43:05.135Z,76.82
2023-03-29T16:45:33.083Z,76.87
2023-03-29T16:48:01.689Z,76.99
2023-03-29T16:50:29.611Z,77.16
2023-03-29T16:52:57.538Z,77.36
2023-03-29T16:55:26.799Z,77.50
2023-03-29T16:57:54.986Z,77.41
2023-03-29T17:00:23.136Z,77.35
2023-03-29T17:02:51.055Z,77.65
2023-03-29T17:05:19.856Z,77.62
2023-03-29T17:07:47.861Z,77.38
2023-03-29T17:10:16.067Z,77.74
2023-03-29T17:12:45.633Z,77.42
2023-03-29T17:15:13.582Z,77.42
2023-03-29T17:17:41.577Z,77.16
2023-03-29T17:20:12.429Z,77.12
2023-03-29T17:22:40.340Z,77.17
2023-03-29T17:25:09.506Z,76.89
2023-03-29T17:27:37.923Z,76.68
2023-03-29T17:30:09.257Z,76.77
2023-03-29T17:32:37.211Z,76.05
2023-03-29T17:35:05.756Z,76.28
2023-03-29T17:37:33.681Z,76.21
2023-03-29T17:40:07.158Z,76.05
2023-03-29T17:42:34.990Z,76.01
2023-03-29T17:45:02.882Z,76.01
2023-03-29T17:47:32.170Z,76.02
2023-03-29T17:49:59.845Z,76.02
2023-03-29T17:52:28.119Z,76.08
2023-03-29T17:54:56.082Z,75.66
2023-03-29T17:57:24.268Z,75.51
2023-03-29T17:59:52.143Z,75.21
2023-03-29T18:02:22.385Z,75.00
2023-03-29T18:04:51.982Z,75.03
2023-03-29T18:07:19.904Z,74.90
2023-03-29T18:09:47.821Z,74.90
2023-03-29T18:12:15.666Z,74.91
2023-03-29T18:14:43.478Z,75.02
2023-03-29T18:17:11.311Z,74.97
2023-03-29T18:19:39.167Z,74.85
2023-03-29T18:22:08.419Z,74.88
2023-03-29T18:24:36.087Z,74.90
2023-03-29T18:27:03.972Z,75.14
2023-03-29T18:29:31.839Z,75.36
2023-03-29T18:32:02.744Z,75.46
2023-03-29T18:34:31.284Z,75.64
2023-03-29T18:36:59.241Z,75.76
2023-03-29T18:39:28.495Z,75.80
2023-03-29T18:41:56.373Z,75.77
2023-03-29T18:44:27.288Z,75.77
2023-03-29T18:46:55.394Z,75.60
2023-03-29T18:49:23.316Z,75.75
2023-03-29T18:51:51.141Z,75.49
2023-03-29T18:54:19.263Z,75.14
2023-03-29T18:56:48.495Z,75.33
2023-03-29T18:59:17.126Z,75.21
2023-03-29T19:01:45.307Z,75.19
2023-03-29T19:04:14.364Z,75.14
2023-03-29T19:06:42.891Z,75.21
2023-03-29T19:09:10.869Z,75.12
2023-03-29T19:11:38.774Z,75.12
2023-03-29T19:14:09.155Z,75.28
2023-03-29T19:16:37.299Z,75.27
2023-03-29T19:19:06.940Z,75.37
2023-03-29T19:21:34.936Z,75.08
2023-03-29T19:24:05.023Z,75.00
2023-03-29T19:26:33.590Z,74.60
2023-03-29T19:29:01.771Z,74.54
2023-03-29T19:31:33.478Z,74.56
2023-03-29T19:34:01.968Z,74.53
2023-03-29T19:36:30.926Z,74.17
2023-03-29T19:38:59.402Z,73.92
2023-03-29T19:41:27.762Z,73.89
2023-03-29T19:43:55.708Z,73.69
2023-03-29T19:46:24.079Z,73.40
2023-03-29T19:48:55.562Z,73.38
2023-03-29T19:51:23.900Z,73.10
2023-03-29T19:53:52.769Z,72.88
2023-03-29T19:56:20.787Z,72.68
2023-03-29T19:58:49.208Z,72.59
2023-03-29T20:01:20.565Z,72.74
2023-03-29T20:03:48.947Z,72.69
2023-03-29T20:06:19.698Z,72.70
2023-03-29T20:08:48.353Z,72.45
2023-03-29T20:11:19.792Z,72.25
2023-03-29T20:13:47.672Z,72.03
2023-03-29T20:16:18.034Z,71.94
2023-03-29T20:18:46.673Z,71.71
2023-03-29T20:21:18.312Z,71.56
2023-03-29T20:23:47.564Z,71.29
2023-03-29T20:26:15.370Z,71.04
2023-03-29T20:28:43.448Z,70.81
2023-03-29T20:31:11.725Z,70.55
2023-03-29T20:33:41.259Z,70.50
2023-03-29T20:36:10.036Z,70.48
2023-03-29T20:38:38.365Z,70.21
2023-03-29T20:41:09.285Z,69.82
2023-03-29T20:43:38.200Z,70.02
2023-03-29T20:46:14.296Z,69.84
2023-03-29T20:48:52.922Z,69.46
2023-03-29T20:51:21.423Z,68.90
2023-03-29T20:53:50.652Z,68.85
2023-03-29T20:56:20.850Z,68.68
2023-03-29T20:58:48.714Z,68.63
2023-03-29T21:01:16.565Z,68.64
2023-03-29T21:03:44.514Z,68.74
2023-03-29T21:06:13.993Z,68.34
2023-03-29T21:08:42.540Z,68.32
2023-03-29T21:11:13.031Z,68.15
2023-03-29T21:13:42.526Z,68.05
2023-03-29T21:16:10.847Z,68.10
2023-03-29T21:18:39.503Z,68.02
2023-03-29T21:21:08.244Z,67.79
2023-03-29T21:23:36.562Z,67.46
2023-03-29T21:26:06.734Z,67.39
2023-03-29T21:28:35.340Z,67.17
2023-03-29T21:31:07.063Z,67.28
2023-03-29T21:33:36.086Z,67.09
2023-03-29T21:36:04.259Z,66.99
2023-03-29T21:38:32.172Z,67.06
2023-03-29T21:41:00.997Z,67.34
2023-03-29T21:43:29.048Z,67.36
2023-03-29T21:45:57.586Z,67.20
2023-03-29T21:48:27.248Z,67.30
2023-03-29T21:50:55.095Z,67.16
2023-03-29T21:53:24.552Z,66.91
2023-03-29T21:55:53.114Z,66.64
2023-03-29T21:58:21.455Z,66.78
2023-03-29T22:00:49.538Z,66.84
2023-03-29T22:03:17.655Z,66.78
2023-03-29T22:05:58.282Z,66.96
2023-03-29T22:08:27.054Z,66.85
2023-03-29T22:10:56.777Z,66.78
2023-03-29T22:13:26.106Z,66.69
2023-03-29T22:15:58.616Z,66.74
2023-03-29T22:18:27.810Z,66.80
2023-03-29T22:20:57.179Z,67.03
2023-03-29T22:23:25.738Z,67.08
2023-03-29T22:25:53.608Z,67.33
2023-03-29T22:28:21.518Z,67.74
2023-03-29T22:30:49.326Z,67.74
2023-03-29T22:33:17.255Z,67.43
2023-03-29T22:35:45.137Z,67.34
2023-03-29T22:38:14.426Z,66.72
2023-03-29T22:40:42.155Z,66.44
2023-03-29T22:43:09.966Z,66.65
2023-03-29T22:45:37.953Z,66.35
2023-03-29T22:48:06.612Z,66.06
2023-03-29T22:50:34.702Z,65.91
2023-03-29T22:53:02.597Z,65.56
2023-03-29T22:55:31.813Z,65.20
2023-03-29T22:57:59.493Z,65.13
2023-03-29T23:00:27.346Z,65.27
2023-03-29T23:02:55.352Z,64.86
2023-03-29T23:05:23.392Z,64.76
2023-03-29T23:07:51.434Z,64.72
2023-03-29T23:10:19.511Z,64.94
2023-03-29T23:12:49.629Z,64.64
2023-03-29T23:15:17.957Z,64.50
2023-03-29T23:17:45.972Z,64.17
2023-03-29T23:20:14.121Z,63.99
2023-03-29T23:22:41.975Z,63.85
2023-03-29T23:25:10.322Z,63.87
2023-03-29T23:27:38.232Z,63.90
2023-03-29T23:30:08.907Z,63.65
2023-03-29T23:32:36.775Z,63.67
2023-03-29T23:35:06.097Z,63.82
2023-03-29T23:37:33.759Z,63.83
2023-03-29T23:40:01.642Z,63.95
2023-03-29T23:42:30.809Z,64.00
2023-03-29T23:44:58.494Z,64.01
2023-03-29T23:47:28.778Z,64.07
2023-03-29T23:49:56.707Z,64.24
2023-03-29T23:52:24.735Z,64.49
2023-03-29T23:54:52.564Z,64.53
2023-03-29T23:57:21.338Z,64.16
2023-03-29T23:59:52.575Z,63.94
